Terminal Aerodrome Forecast
Issued by NWS

Home | Current Version | Previous Version | Text Only | Print | Product List | Glossary On
Versions: 1 2 3 4 5 6 7 8 9 10 11 12 13 14 15 16 17 18 19 20 21
242
FTUS46 KSEW 291506 AAA
TAFCLM
TAF AMD
KCLM 291506Z 2915/3012 25003KT 4SM BR BKN003 OVC011
     FM291800 VRB03KT 6SM -RA BR BKN020 OVC040
     FM292100 29009KT P6SM -SHRA BKN030 OVC050
     FM300000 27013G23KT P6SM VCSH SCT030 BKN060 BKN200 PROB30
      3006/3012 -SHRA OVC030=

USA.gov is the U.S. government's official web portal to all federal, state and local government web resources and services.